createdAt,value
2019-04-11T00:01:48.657Z,9.95
2019-04-11T00:04:16.066Z,9.79
2019-04-11T00:06:44.787Z,9.79
2019-04-11T00:09:14.756Z,9.71
2019-04-11T00:11:44.186Z,9.76
2019-04-11T00:14:13.841Z,9.81
2019-04-11T00:16:43.532Z,9.93
2019-04-11T00:19:12.269Z,9.95
2019-04-11T00:21:41.399Z,10.11
2019-04-11T00:24:10.423Z,10.08
2019-04-11T00:26:40.202Z,10.02
2019-04-11T00:29:08.816Z,9.90
2019-04-11T00:31:37.469Z,9.76
2019-04-11T00:34:06.847Z,9.91
2019-04-11T00:36:36.664Z,9.58
2019-04-11T00:39:08.048Z,9.51
2019-04-11T00:41:36.351Z,9.25
2019-04-11T00:44:06.358Z,9.15
2019-04-11T00:46:34.800Z,9.28
2019-04-11T00:49:03.123Z,9.01
2019-04-11T00:51:31.901Z,9.04
2019-04-11T00:54:00.633Z,8.99
2019-04-11T00:56:29.026Z,8.97
2019-04-11T00:58:58.296Z,8.79
2019-04-11T01:01:26.602Z,8.85
2019-04-11T01:03:55.776Z,8.85
2019-04-11T01:06:24.372Z,8.89
2019-04-11T01:08:53.711Z,8.97
2019-04-11T01:11:23.667Z,9.08
2019-04-11T01:13:55.273Z,8.98
2019-04-11T01:16:27.024Z,8.80
2019-04-11T01:18:55.393Z,11.26
2019-04-11T01:21:24.267Z,8.79
2019-04-11T01:23:53.444Z,8.77
2019-04-11T01:26:23.237Z,8.65
2019-04-11T01:28:52.529Z,11.37
2019-04-11T01:31:23.705Z,8.76
2019-04-11T01:33:52.012Z,8.78
2019-04-11T01:36:20.604Z,8.86
2019-04-11T01:38:53.283Z,8.80
2019-04-11T01:41:22.487Z,8.91
2019-04-11T01:43:56.438Z,8.95
2019-04-11T01:46:22.258Z,8.91
2019-04-11T01:48:55.684Z,8.90
2019-04-11T01:51:25.354Z,9.47
2019-04-11T01:53:55.258Z,9.78
2019-04-11T01:56:23.899Z,9.28
2019-04-11T01:58:53.114Z,9.15
2019-04-11T02:01:26.104Z,8.99
2019-04-11T02:04:08.036Z,8.94
2019-04-11T02:06:38.207Z,8.85
2019-04-11T02:09:09.887Z,8.91
2019-04-11T02:11:39.376Z,9.05
2019-04-11T02:14:14.291Z,8.90
2019-04-11T02:16:37.978Z,8.52
2019-04-11T02:19:06.354Z,8.47
2019-04-11T02:21:35.887Z,8.81
2019-04-11T02:24:23.651Z,8.88
2019-04-11T02:27:06.489Z,8.77
2019-04-11T02:29:35.451Z,8.58
2019-04-11T02:32:05.464Z,8.55
2019-04-11T02:34:35.217Z,8.71
2019-04-11T02:37:05.061Z,8.29
2019-04-11T02:39:35.501Z,8.21
2019-04-11T02:42:06.668Z,8.27
2019-04-11T02:44:53.193Z,8.09
2019-04-11T02:47:09.699Z,8.11
2019-04-11T02:49:35.803Z,8.15
2019-04-11T02:52:04.564Z,8.20
2019-04-11T02:54:33.820Z,8.03
2019-04-11T02:57:03.250Z,8.96
2019-04-11T02:59:31.952Z,8.07
2019-04-11T03:02:01.237Z,8.25
2019-04-11T03:04:31.033Z,8.07
2019-04-11T03:07:00.546Z,8.12
2019-04-11T03:09:29.662Z,8.08
2019-04-11T03:11:59.533Z,8.07
2019-04-11T03:14:44.628Z,8.10
2019-04-11T03:17:09.339Z,8.03
2019-04-11T03:19:42.771Z,7.96
2019-04-11T03:21:59.435Z,7.95
2019-04-11T03:24:30.861Z,7.91
2019-04-11T03:27:04.132Z,7.73
2019-04-11T03:29:30.889Z,7.71
2019-04-11T03:37:23.398Z,7.73
2019-04-11T03:39:51.602Z,7.82
2019-04-11T03:42:17.430Z,7.73
2019-04-11T03:44:37.881Z,7.86
2019-04-11T03:47:19.645Z,7.87
2019-04-11T03:49:39.565Z,8.26
2019-04-11T03:52:01.368Z,8.49
2019-04-11T03:54:31.673Z,7.68
2019-04-11T03:57:01.201Z,7.65
2019-04-11T03:59:31.431Z,7.59
2019-04-11T04:02:00.823Z,7.60
2019-04-11T04:04:29.457Z,7.65
2019-04-11T04:06:58.497Z,7.54
2019-04-11T04:09:29.128Z,7.53
2019-04-11T04:11:58.990Z,7.61
2019-04-11T04:14:37.203Z,7.55
2019-04-11T04:17:19.361Z,7.51
2019-04-11T04:20:04.930Z,7.40
2019-04-11T04:22:42.089Z,7.56
2019-04-11T04:25:12.423Z,7.59
2019-04-11T04:27:42.796Z,7.66
2019-04-11T04:30:13.732Z,7.50
2019-04-11T04:32:42.912Z,7.54
2019-04-11T04:35:16.809Z,7.49
2019-04-11T04:37:43.347Z,7.51
2019-04-11T04:40:26.858Z,7.42
2019-04-11T04:42:48.302Z,7.44
2019-04-11T04:45:14.645Z,7.41
2019-04-11T04:47:48.969Z,7.43
2019-04-11T04:50:13.721Z,7.55
2019-04-11T04:52:42.818Z,7.41
2019-04-11T04:55:12.957Z,7.42
2019-04-11T04:57:42.945Z,7.38
2019-04-11T05:00:13.982Z,7.35
2019-04-11T05:02:43.759Z,7.44
2019-04-11T05:05:13.505Z,7.39
2019-04-11T05:07:44.095Z,7.41
2019-04-11T05:10:13.430Z,7.46
2019-04-11T05:12:41.959Z,7.39
2019-04-11T05:15:10.354Z,7.41
2019-04-11T05:17:40.414Z,7.55
2019-04-11T05:20:09.224Z,7.58
2019-04-11T05:22:37.708Z,7.62
2019-04-11T05:25:06.777Z,7.68
2019-04-11T05:27:35.836Z,7.93
2019-04-11T05:30:05.265Z,7.62
2019-04-11T05:32:33.637Z,7.65
2019-04-11T05:35:02.906Z,7.74
2019-04-11T05:37:31.391Z,7.89
2019-04-11T05:40:00.801Z,7.82
2019-04-11T05:42:29.311Z,7.79
2019-04-11T05:44:59.033Z,7.75
2019-04-11T05:47:27.730Z,7.65
2019-04-11T05:50:15.939Z,7.59
2019-04-11T05:52:56.723Z,7.62
2019-04-11T05:55:26.272Z,7.65
2019-04-11T05:57:54.583Z,7.62
2019-04-11T06:00:34.706Z,7.76
2019-04-11T06:03:05.823Z,7.98
2019-04-11T06:05:47.954Z,7.95
2019-04-11T06:08:25.439Z,7.61
2019-04-11T06:10:50.441Z,7.60
2019-04-11T06:13:20.866Z,7.66
2019-04-11T06:15:53.966Z,7.94
2019-04-11T06:18:43.168Z,7.60
2019-04-11T06:21:16.344Z,7.85
2019-04-11T06:23:46.305Z,7.80
2019-04-11T06:26:23.025Z,7.93
2019-04-11T06:28:55.451Z,7.89
2019-04-11T06:31:36.393Z,8.07
2019-04-11T06:34:07.203Z,8.49
2019-04-11T06:36:37.238Z,8.14
2019-04-11T06:39:19.071Z,8.68
2019-04-11T06:41:50.408Z,8.45
2019-04-11T06:44:35.403Z,8.19
2019-04-11T06:47:08.337Z,8.33
2019-04-11T06:49:38.463Z,8.54
2019-04-11T06:52:11.134Z,8.55
2019-04-11T06:54:41.446Z,8.30
2019-04-11T06:57:15.969Z,8.16
2019-04-11T06:59:46.167Z,8.22
2019-04-11T07:02:19.641Z,8.02
2019-04-11T07:05:02.517Z,7.91
2019-04-11T07:07:35.670Z,8.02
2019-04-11T07:10:06.235Z,8.07
2019-04-11T07:12:36.335Z,8.26
2019-04-11T07:15:10.136Z,8.28
2019-04-11T07:18:00.994Z,8.50
2019-04-11T07:20:38.934Z,8.37
2019-04-11T07:23:24.909Z,8.54
2019-04-11T07:26:10.251Z,8.80
2019-04-11T07:28:43.891Z,8.82
2019-04-11T07:31:21.311Z,9.14
2019-04-11T07:33:51.982Z,8.79
2019-04-11T07:36:38.397Z,9.13
2019-04-11T07:39:12.900Z,8.89
2019-04-11T07:41:45.321Z,8.96
2019-04-11T07:44:15.668Z,9.37
2019-04-11T07:47:14.569Z,8.98
2019-04-11T07:49:35.160Z,8.82
2019-04-11T07:52:08.927Z,8.90
2019-04-11T07:54:38.971Z,8.91
2019-04-11T07:57:26.324Z,9.53
2019-04-11T08:00:03.623Z,9.95
2019-04-11T08:02:37.723Z,9.58
2019-04-11T08:05:25.436Z,9.34
2019-04-11T08:08:11.760Z,9.50
2019-04-11T08:10:44.360Z,9.71
2019-04-11T08:13:23.199Z,9.31
2019-04-11T08:16:10.571Z,9.93
2019-04-11T08:18:41.141Z,9.79
2019-04-11T08:21:28.298Z,9.86
2019-04-11T08:24:04.500Z,10.00
2019-04-11T08:26:34.459Z,10.71
2019-04-11T08:29:09.003Z,10.12
2019-04-11T08:31:51.509Z,9.84
2019-04-11T08:34:21.897Z,9.87
2019-04-11T08:36:57.565Z,9.59
2019-04-11T08:39:26.066Z,9.74
2019-04-11T08:42:09.379Z,9.97
2019-04-11T08:44:37.777Z,10.20
2019-04-11T08:47:07.763Z,10.38
2019-04-11T08:49:37.903Z,10.47
2019-04-11T08:52:07.920Z,10.31
2019-04-11T08:54:37.884Z,10.96
2019-04-11T08:57:07.523Z,10.26
2019-04-11T08:59:54.529Z,10.85
2019-04-11T09:02:23.326Z,10.34
2019-04-11T09:05:14.668Z,10.33
2019-04-11T09:07:40.003Z,10.41
2019-04-11T09:10:26.233Z,10.50
2019-04-11T09:12:58.963Z,10.71
2019-04-11T09:15:45.395Z,10.81
2019-04-11T09:18:15.303Z,10.71
2019-04-11T09:20:48.095Z,11.66
2019-04-11T09:23:17.662Z,11.66
2019-04-11T09:25:52.198Z,11.10
2019-04-11T09:28:21.889Z,10.76
2019-04-11T09:31:01.128Z,11.92
2019-04-11T09:33:47.392Z,12.16
2019-04-11T09:36:33.403Z,11.74
2019-04-11T09:39:19.596Z,11.61
2019-04-11T09:42:07.076Z,11.37
2019-04-11T09:44:37.923Z,12.61
2019-04-11T09:47:17.009Z,11.10
2019-04-11T09:50:02.404Z,11.13
2019-04-11T09:52:33.217Z,11.43
2019-04-11T09:55:12.895Z,12.03
2019-04-11T09:57:44.058Z,12.30
2019-04-11T10:00:14.432Z,11.93
2019-04-11T10:02:56.264Z,11.91
2019-04-11T10:05:32.094Z,12.07
2019-04-11T10:08:02.262Z,13.54
2019-04-11T10:10:33.079Z,13.18
2019-04-11T10:13:20.543Z,14.19
2019-04-11T10:16:07.556Z,12.81
2019-04-11T10:18:40.349Z,13.78
2019-04-11T10:21:09.878Z,13.38
2019-04-11T10:23:40.923Z,14.26
2019-04-11T10:26:09.781Z,14.81
2019-04-11T10:28:42.309Z,15.26
2019-04-11T10:31:12.499Z,14.30
2019-04-11T10:33:49.038Z,13.63
2019-04-11T10:36:19.110Z,14.78
2019-04-11T10:38:52.937Z,13.78
2019-04-11T10:41:25.817Z,12.19
2019-04-11T10:43:54.193Z,12.79
2019-04-11T10:46:25.181Z,12.06
2019-04-11T10:49:01.240Z,11.64
2019-04-11T10:51:40.831Z,11.61
2019-04-11T10:54:11.509Z,12.31
2019-04-11T10:56:57.907Z,12.39
2019-04-11T10:59:28.048Z,11.80
2019-04-11T11:01:58.257Z,12.05
2019-04-11T11:04:28.205Z,12.61
2019-04-11T11:06:58.026Z,12.73
2019-04-11T11:09:44.518Z,12.09
2019-04-11T11:12:32.955Z,11.98
2019-04-11T11:15:13.586Z,12.15
2019-04-11T11:18:29.637Z,12.26
2019-04-11T11:20:55.077Z,12.05
2019-04-11T11:23:29.450Z,11.76
2019-04-11T11:26:19.764Z,11.76
2019-04-11T11:29:07.136Z,11.83
2019-04-11T11:31:36.261Z,11.73
2019-04-11T11:34:07.383Z,11.84
2019-04-11T11:36:46.162Z,11.54
2019-04-11T11:39:22.690Z,11.76
2019-04-11T11:42:10.313Z,11.77
2019-04-11T11:44:46.667Z,11.06
2019-04-11T11:47:22.379Z,11.40
2019-04-11T11:49:58.670Z,11.76
2019-04-11T11:52:41.208Z,11.26
2019-04-11T11:55:12.433Z,11.20
2019-04-11T11:57:42.763Z,11.08
2019-04-11T12:00:16.909Z,11.47
2019-04-11T12:02:51.219Z,11.50
2019-04-11T12:05:22.331Z,11.72
2019-04-11T12:07:56.003Z,12.25
2019-04-11T12:10:29.142Z,11.82
2019-04-11T12:13:14.786Z,11.16
2019-04-11T12:16:02.177Z,11.15
2019-04-11T12:18:35.292Z,11.03
2019-04-11T12:21:05.638Z,11.27
2019-04-11T12:24:00.681Z,11.10
2019-04-11T12:26:28.866Z,11.13
2019-04-11T12:28:57.589Z,11.05
2019-04-11T12:31:32.074Z,11.48
2019-04-11T12:34:12.265Z,11.37
2019-04-11T12:36:44.625Z,11.31
2019-04-11T12:39:24.742Z,11.96
2019-04-11T12:41:57.035Z,11.57
2019-04-11T12:44:30.364Z,11.53
2019-04-11T12:47:15.964Z,11.88
2019-04-11T12:49:53.255Z,11.48
2019-04-11T12:52:26.051Z,11.37
2019-04-11T12:55:01.741Z,11.48
2019-04-11T12:57:34.494Z,11.96
2019-04-11T13:00:19.478Z,11.85
2019-04-11T13:03:04.718Z,11.79
2019-04-11T13:05:40.489Z,11.64
2019-04-11T13:08:26.712Z,11.69
2019-04-11T13:10:55.365Z,11.69
2019-04-11T13:13:25.338Z,11.81
2019-04-11T13:15:55.353Z,12.09
2019-04-11T13:18:41.374Z,11.84
2019-04-11T13:21:19.871Z,12.03
2019-04-11T13:23:49.820Z,12.00
2019-04-11T13:26:36.157Z,11.72
2019-04-11T13:29:22.238Z,11.60
2019-04-11T13:31:55.141Z,11.42
2019-04-11T13:34:25.453Z,11.14
2019-04-11T13:37:11.238Z,10.92
2019-04-11T13:39:39.734Z,10.82
2019-04-11T13:42:25.867Z,11.37
2019-04-11T13:44:54.716Z,11.14
2019-04-11T13:47:24.679Z,11.41
2019-04-11T13:49:54.691Z,11.12
2019-04-11T13:52:40.802Z,10.95
2019-04-11T13:55:11.754Z,11.13
2019-04-11T13:57:57.881Z,11.22
2019-04-11T14:00:43.227Z,11.11
2019-04-11T14:03:29.474Z,11.14
2019-04-11T14:05:59.810Z,11.11
2019-04-11T14:08:38.723Z,11.21
2019-04-11T14:11:11.536Z,11.03
2019-04-11T14:13:46.166Z,11.12
2019-04-11T14:16:16.141Z,10.70
2019-04-11T14:18:51.525Z,10.64
2019-04-11T14:21:27.641Z,10.83
2019-04-11T14:24:06.617Z,10.59
2019-04-11T14:26:36.687Z,10.63
2019-04-11T14:29:15.875Z,10.86
2019-04-11T14:31:54.070Z,10.81
2019-04-11T14:34:39.254Z,10.93
2019-04-11T14:37:17.829Z,10.77
2019-04-11T14:39:47.783Z,11.08
2019-04-11T14:42:35.932Z,10.91
2019-04-11T14:45:07.615Z,11.08
2019-04-11T14:47:40.297Z,10.59
2019-04-11T14:50:11.874Z,10.90
2019-04-11T14:52:57.851Z,10.75
2019-04-11T14:55:27.801Z,10.61
2019-04-11T14:58:16.612Z,10.62
2019-04-11T15:00:45.307Z,10.74
2019-04-11T15:03:33.309Z,10.51
2019-04-11T15:06:06.155Z,10.43
2019-04-11T15:08:38.738Z,10.75
2019-04-11T15:11:18.681Z,10.75
2019-04-11T15:13:48.995Z,10.58
2019-04-11T15:16:35.083Z,10.56
2019-04-11T15:19:03.874Z,10.32
2019-04-11T15:21:46.496Z,10.38
2019-04-11T15:24:15.240Z,10.70
2019-04-11T15:27:01.586Z,10.30
2019-04-11T15:29:30.590Z,10.40
2019-04-11T15:32:12.597Z,10.25
2019-04-11T15:34:42.565Z,10.12
2019-04-11T15:37:21.394Z,10.22
2019-04-11T15:39:54.340Z,10.13
2019-04-11T15:42:27.039Z,10.29
2019-04-11T15:44:59.693Z,9.96
2019-04-11T15:47:29.692Z,10.00
2019-04-11T15:50:15.866Z,10.11
2019-04-11T15:52:46.122Z,9.92
2019-04-11T15:55:16.144Z,9.73
2019-04-11T15:57:45.007Z,9.77
2019-04-11T16:00:18.186Z,9.84
2019-04-11T16:03:00.104Z,9.92
2019-04-11T16:05:46.399Z,9.81
2019-04-11T16:08:16.719Z,9.86
2019-04-11T16:10:47.403Z,9.79
2019-04-11T16:13:17.348Z,9.75
2019-04-11T16:15:47.305Z,9.76
2019-04-11T16:18:19.961Z,9.74
2019-04-11T16:20:51.593Z,9.56
2019-04-11T16:23:39.807Z,9.68
2019-04-11T16:26:09.934Z,9.70
2019-04-11T16:28:45.847Z,9.66
2019-04-11T16:31:14.174Z,9.62
2019-04-11T16:33:46.147Z,9.63
2019-04-11T16:36:21.645Z,9.68
2019-04-11T16:38:51.582Z,9.54
2019-04-11T16:41:37.782Z,9.48
2019-04-11T16:44:25.035Z,9.49
2019-04-11T16:47:08.349Z,9.64
2019-04-11T16:49:36.710Z,9.50
2019-04-11T16:52:07.533Z,9.45
2019-04-11T16:54:35.127Z,9.43
2019-04-11T16:57:03.562Z,9.61
2019-04-11T16:59:32.063Z,9.66
2019-04-11T17:02:00.375Z,9.64
2019-04-11T17:04:28.699Z,9.53
2019-04-11T17:07:01.073Z,9.57
2019-04-11T17:09:31.401Z,9.62
2019-04-11T17:11:59.718Z,9.56
2019-04-11T17:14:30.953Z,9.48
2019-04-11T17:17:00.667Z,9.52
2019-04-11T17:19:28.501Z,9.46
2019-04-11T17:21:56.809Z,9.40
2019-04-11T17:24:25.464Z,9.38
2019-04-11T17:26:53.779Z,9.40
2019-04-11T17:29:24.737Z,9.49
2019-04-11T17:31:55.647Z,9.51
2019-04-11T17:34:22.212Z,9.53
2019-04-11T17:36:50.530Z,9.38
2019-04-11T17:39:19.237Z,9.35
2019-04-11T17:41:47.568Z,9.39
2019-04-11T17:44:16.203Z,9.40
2019-04-11T17:46:44.502Z,9.43
2019-04-11T17:49:12.911Z,9.42
2019-04-11T17:51:42.776Z,9.36
2019-04-11T17:54:11.383Z,9.36
2019-04-11T17:56:39.679Z,9.44
2019-04-11T17:59:08.242Z,9.38
2019-04-11T18:01:37.994Z,9.35
2019-04-11T18:04:08.810Z,9.37
2019-04-11T18:06:37.453Z,9.29
2019-04-11T18:09:09.915Z,9.35
2019-04-11T18:11:38.223Z,9.34
2019-04-11T18:14:06.546Z,9.24
2019-04-11T18:16:34.848Z,9.27
2019-04-11T18:19:05.830Z,9.27
2019-04-11T18:21:34.902Z,9.83
2019-04-11T18:24:04.317Z,9.78
2019-04-11T18:26:32.715Z,9.62
2019-04-11T18:29:01.315Z,9.42
2019-04-11T18:31:30.003Z,9.38
2019-04-11T18:34:01.718Z,9.35
2019-04-11T18:36:31.735Z,9.16
2019-04-11T18:39:01.726Z,9.13
2019-04-11T18:41:28.773Z,9.04
2019-04-11T18:43:57.074Z,9.04
2019-04-11T18:46:25.441Z,8.97
2019-04-11T18:48:54.568Z,8.92
2019-04-11T18:51:23.796Z,8.89
2019-04-11T18:53:52.475Z,8.92
2019-04-11T18:56:21.085Z,8.85
2019-04-11T18:58:49.403Z,8.81
2019-04-11T19:01:18.489Z,8.75
2019-04-11T19:03:46.804Z,8.82
2019-04-11T19:06:27.231Z,8.76
2019-04-11T19:08:45.584Z,8.72
2019-04-11T19:11:15.847Z,8.75
2019-04-11T19:13:46.722Z,8.78
2019-04-11T19:16:16.119Z,8.53
2019-04-11T19:18:47.154Z,8.58
2019-04-11T19:21:14.438Z,8.66
2019-04-11T19:23:43.115Z,8.72
2019-04-11T19:26:14.469Z,8.61
2019-04-11T19:28:41.544Z,8.71
2019-04-11T19:31:12.220Z,8.74
2019-04-11T19:33:40.178Z,8.74
2019-04-11T19:36:10.007Z,8.69
2019-04-11T19:38:43.009Z,8.63
2019-04-11T19:41:08.768Z,8.64
2019-04-11T19:43:37.090Z,8.72
2019-04-11T19:46:07.099Z,8.71
2019-04-11T19:48:35.383Z,8.75
2019-04-11T19:51:03.817Z,8.72
2019-04-11T19:53:33.015Z,8.83
2019-04-11T19:56:12.402Z,8.80
2019-04-11T19:58:40.799Z,8.77
2019-04-11T20:01:10.368Z,8.72
2019-04-11T20:03:38.846Z,8.77
2019-04-11T20:06:07.154Z,8.74
2019-04-11T20:08:35.479Z,8.65
2019-04-11T20:11:03.774Z,8.63
2019-04-11T20:13:32.848Z,8.72
2019-04-11T20:16:01.474Z,8.69
2019-04-11T20:18:29.798Z,8.67
2019-04-11T20:20:58.115Z,8.73
2019-04-11T20:23:26.707Z,8.53
2019-04-11T20:25:55.037Z,8.53
2019-04-11T20:28:23.340Z,8.53
2019-04-11T20:30:51.675Z,8.52
2019-04-11T20:33:27.099Z,8.46
2019-04-11T20:35:50.096Z,8.43
2019-04-11T20:38:18.746Z,8.43
2019-04-11T20:40:47.039Z,8.35
2019-04-11T20:43:15.358Z,8.40
2019-04-11T20:45:44.835Z,8.35
2019-04-11T20:48:13.162Z,8.38
2019-04-11T20:50:41.458Z,8.38
2019-04-11T20:53:12.836Z,8.24
2019-04-11T20:55:39.999Z,8.22
2019-04-11T20:58:10.287Z,8.28
2019-04-11T21:00:49.491Z,8.27
2019-04-11T21:03:09.345Z,8.26
2019-04-11T21:05:37.665Z,8.24
2019-04-11T21:08:06.093Z,8.18
2019-04-11T21:10:34.794Z,8.10
2019-04-11T21:13:06.914Z,8.19
2019-04-11T21:15:33.145Z,8.08
2019-04-11T21:18:01.462Z,8.40
2019-04-11T21:20:29.796Z,8.19
2019-04-11T21:22:58.090Z,8.13
2019-04-11T21:25:28.584Z,8.11
2019-04-11T21:27:59.053Z,8.04
2019-04-11T21:30:28.003Z,8.00
2019-04-11T21:32:57.387Z,7.99
2019-04-11T21:35:25.672Z,7.91
2019-04-11T21:37:53.997Z,7.90
2019-04-11T21:40:22.365Z,8.00
2019-04-11T21:42:50.754Z,7.91
2019-04-11T21:45:19.133Z,7.82
2019-04-11T21:47:47.513Z,7.89
2019-04-11T21:50:16.147Z,7.89
2019-04-11T21:52:44.644Z,7.90
2019-04-11T21:55:15.999Z,7.87
2019-04-11T21:57:43.158Z,7.76
2019-04-11T22:00:22.126Z,7.82
2019-04-11T22:02:47.680Z,7.74
2019-04-11T22:05:16.067Z,7.67
2019-04-11T22:07:44.438Z,7.65
2019-04-11T22:10:12.987Z,7.60
2019-04-11T22:12:41.364Z,7.53
2019-04-11T22:15:11.982Z,7.61
2019-04-11T22:17:39.876Z,7.46
2019-04-11T22:20:08.336Z,7.53
2019-04-11T22:22:36.662Z,7.56
2019-04-11T22:25:06.696Z,7.48
2019-04-11T22:27:35.007Z,7.43
2019-04-11T22:30:05.419Z,7.50
2019-04-11T22:32:33.739Z,7.47
2019-04-11T22:35:02.787Z,7.39
2019-04-11T22:37:31.087Z,7.26
2019-04-11T22:40:01.726Z,7.47
2019-04-11T22:42:29.637Z,7.36
2019-04-11T22:44:58.232Z,7.34
2019-04-11T22:47:26.536Z,7.33
2019-04-11T22:49:54.855Z,7.30
2019-04-11T22:52:23.225Z,7.27
2019-04-11T22:54:51.694Z,7.29
2019-04-11T22:57:20.016Z,7.28
2019-04-11T22:59:48.783Z,7.30
2019-04-11T23:02:34.084Z,7.31
2019-04-11T23:05:02.450Z,7.31
2019-04-11T23:07:31.127Z,7.23
2019-04-11T23:09:59.519Z,7.32
2019-04-11T23:12:27.906Z,7.26
2019-04-11T23:14:56.225Z,7.18
2019-04-11T23:17:24.531Z,7.13
2019-04-11T23:19:52.846Z,7.22
2019-04-11T23:22:21.147Z,7.20
2019-04-11T23:24:49.448Z,7.17
2019-04-11T23:27:17.779Z,7.11
2019-04-11T23:29:47.122Z,7.09
2019-04-11T23:32:16.183Z,7.08
2019-04-11T23:34:44.493Z,7.13
2019-04-11T23:37:12.996Z,7.05
2019-04-11T23:39:41.295Z,7.02
2019-04-11T23:42:09.592Z,7.01
2019-04-11T23:44:38.264Z,6.96
2019-04-11T23:47:06.573Z,6.97
2019-04-11T23:49:35.034Z,6.96
2019-04-11T23:52:03.331Z,6.98
2019-04-11T23:54:31.698Z,6.80
2019-04-11T23:57:00.929Z,6.79
2019-04-11T23:59:32.000Z,6.84
